createdAt,value
2024-03-28T00:00:00.497Z,11
2024-03-28T00:01:01.360Z,21
2024-03-28T00:02:00.874Z,21
2024-03-28T00:03:00.403Z,21
2024-03-28T00:04:00.406Z,21
2024-03-28T00:05:00.447Z,15
2024-03-28T00:06:00.660Z,18
2024-03-28T00:07:00.643Z,18
2024-03-28T00:08:00.408Z,18
2024-03-28T00:09:00.436Z,18
2024-03-28T00:10:00.415Z,9
2024-03-28T00:11:00.479Z,17
2024-03-28T00:12:00.414Z,17
2024-03-28T00:13:00.413Z,17
2024-03-28T00:14:00.396Z,17
2024-03-28T00:15:00.455Z,15
2024-03-28T00:16:01.159Z,21
2024-03-28T00:17:01.079Z,21
2024-03-28T00:18:00.405Z,21
2024-03-28T00:19:02.094Z,21
2024-03-28T00:20:00.502Z,12
2024-03-28T00:21:01.367Z,21
2024-03-28T00:22:00.439Z,21
2024-03-28T00:23:01.018Z,21
2024-03-28T00:24:00.432Z,21
2024-03-28T00:25:00.423Z,9
2024-03-28T00:26:00.403Z,14
2024-03-28T00:27:00.379Z,14
2024-03-28T00:28:01.380Z,14
2024-03-28T00:29:00.400Z,14
2024-03-28T00:30:00.415Z,13
2024-03-28T00:31:00.906Z,17
2024-03-28T00:32:00.451Z,17
2024-03-28T00:33:00.426Z,17
2024-03-28T00:34:00.412Z,17
2024-03-28T00:35:00.409Z,13
2024-03-28T00:36:00.420Z,17
2024-03-28T00:37:00.420Z,17
2024-03-28T00:38:00.520Z,17
2024-03-28T00:39:00.419Z,17
2024-03-28T00:40:00.394Z,5
2024-03-28T00:41:01.440Z,22
2024-03-28T00:42:00.444Z,22
2024-03-28T00:43:00.533Z,22
2024-03-28T00:44:00.483Z,22
2024-03-28T00:45:00.691Z,8
2024-03-28T00:46:00.561Z,22
2024-03-28T00:47:00.389Z,22
2024-03-28T00:48:00.376Z,22
2024-03-28T00:49:00.826Z,22
2024-03-28T00:50:00.431Z,14
2024-03-28T00:51:00.751Z,18
2024-03-28T00:52:00.416Z,18
2024-03-28T00:53:00.581Z,18
2024-03-28T00:54:00.396Z,18
2024-03-28T00:55:00.470Z,5
2024-03-28T00:56:00.736Z,18
2024-03-28T00:57:00.405Z,18
2024-03-28T00:58:00.429Z,18
2024-03-28T00:59:00.387Z,18
2024-03-28T01:00:00.625Z,15
2024-03-28T01:01:02.267Z,20
2024-03-28T01:02:00.416Z,20
2024-03-28T01:03:00.425Z,20
2024-03-28T01:04:00.396Z,20
2024-03-28T01:05:00.411Z,20
2024-03-28T01:06:00.798Z,20
2024-03-28T01:07:00.432Z,20
2024-03-28T01:08:00.512Z,20
2024-03-28T01:09:00.444Z,20
2024-03-28T01:10:00.515Z,5
2024-03-28T01:11:00.400Z,16
2024-03-28T01:12:00.605Z,16
2024-03-28T01:13:00.478Z,16
2024-03-28T01:14:00.401Z,16
2024-03-28T01:15:00.458Z,13
2024-03-28T01:16:00.408Z,16
2024-03-28T01:17:00.480Z,16
2024-03-28T01:18:00.560Z,16
2024-03-28T01:19:00.413Z,16
2024-03-28T01:20:00.489Z,13
2024-03-28T01:21:07.726Z,16
2024-03-28T01:22:00.412Z,16
2024-03-28T01:23:00.572Z,16
2024-03-28T01:24:00.409Z,16
2024-03-28T01:25:00.442Z,13
2024-03-28T01:26:03.766Z,14
2024-03-28T01:27:00.432Z,14
2024-03-28T01:28:00.448Z,14
2024-03-28T01:29:00.428Z,14
2024-03-28T01:30:00.457Z,11
2024-03-28T01:31:00.461Z,14
2024-03-28T01:32:01.317Z,14
2024-03-28T01:33:00.395Z,14
2024-03-28T01:34:00.400Z,14
2024-03-28T01:35:00.587Z,7
2024-03-28T01:36:00.395Z,10
2024-03-28T01:37:00.401Z,10
2024-03-28T01:38:00.383Z,10
2024-03-28T01:39:00.568Z,10
2024-03-28T01:40:00.663Z,2
2024-03-28T01:41:00.408Z,10
2024-03-28T01:42:01.455Z,10
2024-03-28T01:43:05.321Z,10
2024-03-28T01:44:00.401Z,10
2024-03-28T01:45:00.475Z,7
2024-03-28T01:46:04.605Z,13
2024-03-28T01:47:17.523Z,13
2024-03-28T01:48:02.843Z,13
2024-03-28T01:49:00.697Z,13
2024-03-28T01:50:00.545Z,7
2024-03-28T01:51:00.713Z,12
2024-03-28T01:52:01.574Z,12
2024-03-28T01:53:00.738Z,12
2024-03-28T01:54:00.604Z,12
2024-03-28T01:55:01.623Z,4
2024-03-28T01:56:00.523Z,10
2024-03-28T01:57:01.161Z,10
2024-03-28T01:58:00.683Z,10
2024-03-28T01:59:01.644Z,10
2024-03-28T02:00:00.497Z,7
2024-03-28T02:01:00.577Z,8
2024-03-28T02:02:02.262Z,8
2024-03-28T02:03:00.414Z,8
2024-03-28T02:04:00.436Z,8
2024-03-28T02:05:00.457Z,5
2024-03-28T02:06:00.584Z,8
2024-03-28T02:07:00.549Z,8
2024-03-28T02:08:00.410Z,8
2024-03-28T02:09:02.397Z,8
2024-03-28T02:10:00.493Z,8
2024-03-28T02:11:00.497Z,9
2024-03-28T02:12:00.824Z,9
2024-03-28T02:13:00.499Z,9
2024-03-28T02:14:00.929Z,9
2024-03-28T02:15:00.545Z,5
2024-03-28T02:16:00.403Z,13
2024-03-28T02:17:07.689Z,13
2024-03-28T02:18:00.398Z,13
2024-03-28T02:19:00.490Z,13
2024-03-28T02:20:00.386Z,11
2024-03-28T02:21:00.450Z,8
2024-03-28T02:22:01.021Z,8
2024-03-28T02:23:00.440Z,8
2024-03-28T02:24:00.506Z,8
2024-03-28T02:25:00.627Z,3
2024-03-28T02:26:00.405Z,9
2024-03-28T02:27:00.417Z,9
2024-03-28T02:28:00.408Z,9
2024-03-28T02:29:00.434Z,9
2024-03-28T02:30:02.432Z,7
2024-03-28T02:31:00.511Z,10
2024-03-28T02:32:00.403Z,10
2024-03-28T02:33:00.431Z,10
2024-03-28T02:34:00.975Z,10
2024-03-28T02:35:01.962Z,3
2024-03-28T02:36:00.395Z,8
2024-03-28T02:37:00.390Z,8
2024-03-28T02:38:00.464Z,8
2024-03-28T02:39:00.392Z,8
2024-03-28T02:40:00.610Z,3
2024-03-28T02:41:00.540Z,8
2024-03-28T02:42:00.414Z,8
2024-03-28T02:43:00.406Z,8
2024-03-28T02:44:00.426Z,8
2024-03-28T02:45:00.516Z,9
2024-03-28T02:46:00.415Z,6
2024-03-28T02:47:00.410Z,6
2024-03-28T02:48:00.407Z,6
2024-03-28T02:49:00.402Z,6
2024-03-28T02:50:00.463Z,10
2024-03-28T02:51:00.469Z,9
2024-03-28T02:52:00.509Z,9
2024-03-28T02:53:00.527Z,9
2024-03-28T02:54:00.524Z,9
2024-03-28T02:55:00.423Z,5
2024-03-28T02:56:00.474Z,9
2024-03-28T02:57:01.281Z,9
2024-03-28T02:58:00.630Z,9
2024-03-28T02:59:00.426Z,9
2024-03-28T03:00:00.549Z,5
2024-03-28T03:01:02.318Z,11
2024-03-28T03:02:00.470Z,11
2024-03-28T03:03:00.469Z,11
2024-03-28T03:04:00.402Z,11
2024-03-28T03:05:00.555Z,4
2024-03-28T03:06:00.484Z,8
2024-03-28T03:07:00.478Z,8
2024-03-28T03:08:00.449Z,8
2024-03-28T03:09:00.556Z,8
2024-03-28T03:10:00.650Z,4
2024-03-28T03:11:00.442Z,9
2024-03-28T03:12:00.491Z,9
2024-03-28T03:13:00.463Z,9
2024-03-28T03:14:00.512Z,9
2024-03-28T03:15:00.656Z,2
2024-03-28T03:16:00.544Z,9
2024-03-28T03:17:00.540Z,9
2024-03-28T03:18:00.563Z,9
2024-03-28T03:19:01.141Z,9
2024-03-28T03:20:00.803Z,4
2024-03-28T03:21:01.083Z,8
2024-03-28T03:22:00.550Z,8
2024-03-28T03:23:00.548Z,8
2024-03-28T03:24:00.582Z,8
2024-03-28T03:25:00.523Z,2
2024-03-28T03:26:00.561Z,9
2024-03-28T03:27:01.914Z,9
2024-03-28T03:28:00.621Z,9
2024-03-28T03:29:00.773Z,9
2024-03-28T03:30:00.586Z,3
2024-03-28T03:31:00.607Z,11
2024-03-28T03:32:01.351Z,11
2024-03-28T03:33:00.446Z,11
2024-03-28T03:34:00.401Z,11
2024-03-28T03:35:00.389Z,6
2024-03-28T03:36:00.404Z,7
2024-03-28T03:37:01.316Z,7
2024-03-28T03:38:00.397Z,7
2024-03-28T03:39:00.435Z,7
2024-03-28T03:40:00.453Z,2
2024-03-28T03:41:00.415Z,8
2024-03-28T03:42:00.396Z,8
2024-03-28T03:43:00.430Z,8
2024-03-28T03:44:00.425Z,8
2024-03-28T03:45:00.840Z,2
2024-03-28T03:46:00.397Z,9
2024-03-28T03:47:00.676Z,9
2024-03-28T03:48:00.419Z,9
2024-03-28T03:49:00.416Z,9
2024-03-28T03:50:00.418Z,3
2024-03-28T03:51:00.442Z,9
2024-03-28T03:52:00.406Z,9
2024-03-28T03:53:00.412Z,9
2024-03-28T03:54:00.410Z,9
2024-03-28T03:55:00.389Z,3
2024-03-28T03:56:00.412Z,8
2024-03-28T03:57:00.425Z,8
2024-03-28T03:58:00.411Z,8
2024-03-28T03:59:00.836Z,8
2024-03-28T04:00:00.412Z,2
2024-03-28T04:01:00.441Z,7
2024-03-28T04:02:00.456Z,7
2024-03-28T04:03:00.405Z,7
2024-03-28T04:04:00.452Z,7
2024-03-28T04:05:00.392Z,2
2024-03-28T04:06:00.884Z,12
2024-03-28T04:07:00.438Z,12
2024-03-28T04:08:00.473Z,12
2024-03-28T04:09:00.422Z,12
2024-03-28T04:10:00.429Z,5
2024-03-28T04:11:00.398Z,11
2024-03-28T04:12:00.432Z,11
2024-03-28T04:13:00.501Z,11
2024-03-28T04:14:00.537Z,11
2024-03-28T04:15:00.442Z,2
2024-03-28T04:16:00.511Z,15
2024-03-28T04:17:00.431Z,15
2024-03-28T04:18:00.424Z,15
2024-03-28T04:19:00.421Z,15
2024-03-28T04:20:01.001Z,6
2024-03-28T04:21:00.493Z,12
2024-03-28T04:22:00.426Z,12
2024-03-28T04:23:00.392Z,12
2024-03-28T04:24:01.127Z,12
2024-03-28T04:25:00.433Z,3
2024-03-28T04:26:00.463Z,12
2024-03-28T04:27:01.814Z,12
2024-03-28T04:28:00.427Z,12
2024-03-28T04:29:00.439Z,12
2024-03-28T04:30:02.226Z,5
2024-03-28T04:31:00.463Z,10
2024-03-28T04:32:00.404Z,10
2024-03-28T04:33:00.451Z,10
2024-03-28T04:34:00.399Z,10
2024-03-28T04:35:00.476Z,4
2024-03-28T04:36:00.412Z,11
2024-03-28T04:37:00.428Z,11
2024-03-28T04:38:00.393Z,11
2024-03-28T04:39:00.398Z,11
2024-03-28T04:40:00.424Z,2
2024-03-28T04:41:00.436Z,8
2024-03-28T04:42:00.411Z,8
2024-03-28T04:43:00.439Z,8
2024-03-28T04:44:00.393Z,8
2024-03-28T04:45:00.527Z,8
2024-03-28T04:46:00.486Z,11
2024-03-28T04:47:00.431Z,11
2024-03-28T04:48:00.462Z,11
2024-03-28T04:49:00.418Z,11
2024-03-28T04:50:00.885Z,6
2024-03-28T04:51:00.407Z,12
2024-03-28T04:52:00.415Z,12
2024-03-28T04:53:00.411Z,12
2024-03-28T04:54:00.419Z,12
2024-03-28T04:55:00.730Z,4
2024-03-28T04:56:00.418Z,12
2024-03-28T04:57:00.716Z,12
2024-03-28T04:58:00.405Z,12
2024-03-28T04:59:00.398Z,12
2024-03-28T05:00:00.634Z,5
2024-03-28T05:01:00.407Z,11
2024-03-28T05:02:00.503Z,11
2024-03-28T05:03:00.398Z,11
2024-03-28T05:04:00.544Z,11
2024-03-28T05:05:00.734Z,13
2024-03-28T05:06:00.396Z,15
2024-03-28T05:07:00.426Z,15
2024-03-28T05:08:00.536Z,15
2024-03-28T05:09:00.570Z,15
2024-03-28T05:10:00.547Z,7
2024-03-28T05:11:00.393Z,12
2024-03-28T05:12:00.423Z,12
2024-03-28T05:13:00.392Z,12
2024-03-28T05:14:00.411Z,12
2024-03-28T05:15:00.450Z,9
2024-03-28T05:16:00.408Z,19
2024-03-28T05:17:00.424Z,19
2024-03-28T05:18:00.403Z,19
2024-03-28T05:19:00.432Z,19
2024-03-28T05:20:00.480Z,3
2024-03-28T05:21:00.385Z,14
2024-03-28T05:22:00.815Z,14
2024-03-28T05:23:00.421Z,14
2024-03-28T05:24:00.497Z,14
2024-03-28T05:25:00.590Z,10
2024-03-28T05:26:00.500Z,18
2024-03-28T05:27:00.703Z,18
2024-03-28T05:28:00.392Z,18
2024-03-28T05:29:00.543Z,18
2024-03-28T05:30:01.008Z,20
2024-03-28T05:31:00.407Z,15
2024-03-28T05:32:00.453Z,15
2024-03-28T05:33:00.401Z,15
2024-03-28T05:34:00.524Z,15
2024-03-28T05:35:00.400Z,6
2024-03-28T05:36:00.394Z,11
2024-03-28T05:37:00.390Z,11
2024-03-28T05:38:00.460Z,11
2024-03-28T05:39:00.394Z,11
2024-03-28T05:40:00.411Z,9
2024-03-28T05:41:00.415Z,9
2024-03-28T05:42:00.504Z,9
2024-03-28T05:43:00.433Z,9
2024-03-28T05:44:01.188Z,9
2024-03-28T05:45:00.424Z,10
2024-03-28T05:46:00.399Z,11
2024-03-28T05:47:00.543Z,11
2024-03-28T05:48:00.388Z,11
2024-03-28T05:49:00.391Z,11
2024-03-28T05:50:00.429Z,5
2024-03-28T05:51:00.445Z,12
2024-03-28T05:52:00.409Z,12
2024-03-28T05:53:00.402Z,12
2024-03-28T05:54:00.427Z,12
2024-03-28T05:55:00.435Z,12
2024-03-28T05:56:00.507Z,9
2024-03-28T05:57:00.429Z,9
2024-03-28T05:58:00.411Z,9
2024-03-28T05:59:00.426Z,9
2024-03-28T06:00:00.500Z,4
2024-03-28T06:01:00.387Z,9
2024-03-28T06:02:00.388Z,9
2024-03-28T06:03:00.437Z,9
2024-03-28T06:04:00.414Z,9
2024-03-28T06:05:00.411Z,4
2024-03-28T06:06:00.411Z,10
2024-03-28T06:07:00.412Z,10
2024-03-28T06:08:00.387Z,10
2024-03-28T06:09:00.426Z,10
2024-03-28T06:10:00.395Z,7
2024-03-28T06:11:00.401Z,13
2024-03-28T06:12:00.390Z,13
2024-03-28T06:13:00.436Z,13
2024-03-28T06:14:08.875Z,13
2024-03-28T06:15:00.453Z,16
2024-03-28T06:16:00.930Z,11
2024-03-28T06:17:00.400Z,11
2024-03-28T06:18:00.425Z,11
2024-03-28T06:19:01.429Z,11
2024-03-28T06:20:00.515Z,5
2024-03-28T06:21:01.089Z,6
2024-03-28T06:22:00.486Z,6
2024-03-28T06:23:00.469Z,6
2024-03-28T06:24:00.495Z,6
2024-03-28T06:25:00.549Z,8
2024-03-28T06:26:01.070Z,15
2024-03-28T06:27:00.463Z,15
2024-03-28T06:28:00.492Z,15
2024-03-28T06:29:00.440Z,15
2024-03-28T06:30:00.655Z,5
2024-03-28T06:31:00.599Z,10
2024-03-28T06:32:00.483Z,10
2024-03-28T06:33:00.585Z,10
2024-03-28T06:34:00.835Z,10
2024-03-28T06:35:00.494Z,7
2024-03-28T06:36:00.454Z,11
2024-03-28T06:37:00.476Z,11
2024-03-28T06:38:00.557Z,11
2024-03-28T06:39:00.626Z,11
2024-03-28T06:40:00.489Z,12
2024-03-28T06:41:01.265Z,11
2024-03-28T06:42:00.447Z,11
2024-03-28T06:43:00.458Z,11
2024-03-28T06:44:00.491Z,11
2024-03-28T06:45:00.517Z,13
2024-03-28T06:46:00.432Z,15
2024-03-28T06:47:00.477Z,15
2024-03-28T06:48:00.529Z,15
2024-03-28T06:49:00.431Z,15
2024-03-28T06:50:00.497Z,7
2024-03-28T06:51:00.526Z,10
2024-03-28T06:52:00.445Z,10
2024-03-28T06:53:00.623Z,10
2024-03-28T06:54:00.641Z,10
2024-03-28T06:55:00.604Z,10
2024-03-28T06:56:00.633Z,7
2024-03-28T06:57:00.596Z,7
2024-03-28T06:58:00.636Z,7
2024-03-28T06:59:00.553Z,7
2024-03-28T07:00:00.650Z,7
2024-03-28T07:01:02.331Z,8
2024-03-28T07:02:00.591Z,8
2024-03-28T07:03:00.621Z,8
2024-03-28T07:04:00.592Z,8
2024-03-28T07:05:00.541Z,6
2024-03-28T07:06:02.591Z,8
2024-03-28T07:07:00.658Z,8
2024-03-28T07:08:00.646Z,8
2024-03-28T07:09:00.680Z,8
2024-03-28T07:10:00.556Z,6
2024-03-28T07:11:00.611Z,4
2024-03-28T07:12:00.589Z,4
2024-03-28T07:13:00.421Z,4
2024-03-28T07:14:00.696Z,4
2024-03-28T07:15:00.403Z,4
2024-03-28T07:16:00.409Z,3
2024-03-28T07:17:00.462Z,3
2024-03-28T07:18:00.399Z,3
2024-03-28T07:19:01.543Z,3
2024-03-28T07:20:00.412Z,4
2024-03-28T07:21:00.397Z,3
2024-03-28T07:22:00.438Z,3
2024-03-28T07:23:00.894Z,3
2024-03-28T07:24:00.399Z,3
2024-03-28T07:25:00.442Z,3
2024-03-28T07:26:00.425Z,5
2024-03-28T07:27:00.651Z,5
2024-03-28T07:28:00.512Z,5
2024-03-28T07:29:03.720Z,5
2024-03-28T07:30:00.483Z,3
2024-03-28T07:31:00.458Z,5
2024-03-28T07:32:00.424Z,5
2024-03-28T07:33:00.495Z,5
2024-03-28T07:34:00.494Z,5
2024-03-28T07:35:00.474Z,3
2024-03-28T07:36:00.398Z,3
2024-03-28T07:37:00.664Z,3
2024-03-28T07:38:00.389Z,3
2024-03-28T07:39:00.411Z,3
2024-03-28T07:40:00.406Z,8
2024-03-28T07:41:00.406Z,6
2024-03-28T07:42:00.418Z,6
2024-03-28T07:43:00.592Z,6
2024-03-28T07:44:00.434Z,6
2024-03-28T07:45:00.555Z,7
2024-03-28T07:46:01.281Z,6
2024-03-28T07:47:00.397Z,6
2024-03-28T07:48:00.400Z,6
2024-03-28T07:49:01.790Z,6
2024-03-28T07:50:00.401Z,5
2024-03-28T07:51:01.266Z,9
2024-03-28T07:52:00.417Z,9
2024-03-28T07:53:00.441Z,9
2024-03-28T07:54:00.441Z,9
2024-03-28T07:55:00.448Z,16
2024-03-28T07:56:00.437Z,9
2024-03-28T07:57:00.412Z,9
2024-03-28T07:58:00.411Z,9
2024-03-28T07:59:00.411Z,9
2024-03-28T08:00:00.466Z,11
2024-03-28T08:01:02.387Z,7
2024-03-28T08:02:00.415Z,7
2024-03-28T08:03:00.412Z,7
2024-03-28T08:04:00.413Z,7
2024-03-28T08:05:00.432Z,10
2024-03-28T08:06:01.064Z,9
2024-03-28T08:07:00.495Z,9
2024-03-28T08:08:00.403Z,9
2024-03-28T08:09:00.432Z,9
2024-03-28T08:10:00.434Z,4
2024-03-28T08:11:00.402Z,7
2024-03-28T08:12:00.432Z,7
2024-03-28T08:13:00.451Z,7
2024-03-28T08:14:00.434Z,7
2024-03-28T08:15:00.439Z,2
2024-03-28T08:16:00.397Z,7
2024-03-28T08:17:00.717Z,7
2024-03-28T08:18:00.692Z,7
2024-03-28T08:19:00.424Z,7
2024-03-28T08:20:00.700Z,2
2024-03-28T08:21:00.463Z,7
2024-03-28T08:22:00.431Z,7
2024-03-28T08:23:00.385Z,7
2024-03-28T08:24:00.430Z,7
2024-03-28T08:25:00.492Z,4
2024-03-28T08:26:00.431Z,7
2024-03-28T08:27:00.405Z,7
2024-03-28T08:28:00.479Z,7
2024-03-28T08:29:00.434Z,7
2024-03-28T08:30:00.549Z,4
2024-03-28T08:31:00.607Z,7
2024-03-28T08:32:00.505Z,7
2024-03-28T08:33:00.545Z,7
2024-03-28T08:34:00.449Z,7
2024-03-28T08:35:00.748Z,3
2024-03-28T08:36:01.508Z,6
2024-03-28T08:37:00.522Z,6
2024-03-28T08:38:00.529Z,6
2024-03-28T08:39:00.582Z,6
2024-03-28T08:40:00.431Z,4
2024-03-28T08:41:00.574Z,9
2024-03-28T08:42:00.520Z,9
2024-03-28T08:43:03.533Z,9
2024-03-28T08:44:00.483Z,9
2024-03-28T08:45:00.530Z,4
2024-03-28T08:46:00.461Z,6
2024-03-28T08:47:00.439Z,6
2024-03-28T08:48:01.103Z,6
2024-03-28T08:49:00.499Z,6
2024-03-28T08:50:00.620Z,9
2024-03-28T08:51:00.464Z,7
2024-03-28T08:52:00.412Z,7
2024-03-28T08:53:00.395Z,7
2024-03-28T08:54:00.535Z,7
2024-03-28T08:55:00.424Z,6
2024-03-28T08:56:00.439Z,10
2024-03-28T08:57:00.431Z,10
2024-03-28T08:58:00.428Z,10
2024-03-28T08:59:00.500Z,10
2024-03-28T09:00:00.500Z,7
2024-03-28T09:01:00.491Z,6
2024-03-28T09:02:00.453Z,6
2024-03-28T09:03:00.490Z,6
2024-03-28T09:04:00.592Z,6
2024-03-28T09:05:00.610Z,12
2024-03-28T09:06:00.641Z,7
2024-03-28T09:07:00.792Z,7
2024-03-28T09:08:00.488Z,7
2024-03-28T09:09:00.747Z,7
2024-03-28T09:10:00.578Z,8
2024-03-28T09:11:00.524Z,11
2024-03-28T09:12:00.528Z,11
2024-03-28T09:13:00.509Z,11
2024-03-28T09:14:00.467Z,11
2024-03-28T09:15:01.021Z,11
2024-03-28T09:16:00.527Z,7
2024-03-28T09:17:00.884Z,7
2024-03-28T09:18:00.561Z,7
2024-03-28T09:19:01.804Z,7
2024-03-28T09:20:00.693Z,8
2024-03-28T09:21:00.934Z,6
2024-03-28T09:22:00.718Z,6
2024-03-28T09:23:00.383Z,6
2024-03-28T09:24:00.417Z,6
2024-03-28T09:25:00.858Z,5
2024-03-28T09:26:00.688Z,7
2024-03-28T09:27:00.480Z,7
2024-03-28T09:28:00.414Z,7
2024-03-28T09:29:00.445Z,7
2024-03-28T09:30:00.628Z,11
2024-03-28T09:31:00.413Z,11
2024-03-28T09:32:00.436Z,11
2024-03-28T09:33:00.426Z,11
2024-03-28T09:34:00.427Z,11
2024-03-28T09:35:00.459Z,10
2024-03-28T09:36:00.593Z,10
2024-03-28T09:37:00.717Z,10
2024-03-28T09:38:00.420Z,10
2024-03-28T09:39:00.440Z,10
2024-03-28T09:40:04.011Z,2
2024-03-28T09:41:05.822Z,8
2024-03-28T09:42:02.246Z,8
2024-03-28T09:43:00.538Z,8
2024-03-28T09:44:03.463Z,8
2024-03-28T09:45:00.742Z,4
2024-03-28T09:46:01.011Z,10
2024-03-28T09:47:00.722Z,10
2024-03-28T09:48:00.942Z,10
2024-03-28T09:49:01.190Z,10
2024-03-28T09:50:01.003Z,6
2024-03-28T09:51:00.526Z,7
2024-03-28T09:52:01.333Z,7
2024-03-28T09:53:00.458Z,7
2024-03-28T09:54:03.423Z,7
2024-03-28T09:55:01.134Z,7
2024-03-28T09:56:00.428Z,6
2024-03-28T09:57:00.402Z,6
2024-03-28T09:58:00.411Z,6
2024-03-28T09:59:00.704Z,6
2024-03-28T10:00:00.403Z,7
2024-03-28T10:01:00.527Z,6
2024-03-28T10:02:07.479Z,6
2024-03-28T10:03:05.137Z,6
2024-03-28T10:04:04.265Z,6
2024-03-28T10:05:01.766Z,5
2024-03-28T10:06:00.407Z,7
2024-03-28T10:07:00.430Z,7
2024-03-28T10:08:01.567Z,7
2024-03-28T10:09:01.323Z,7
2024-03-28T10:10:00.456Z,4
2024-03-28T10:11:00.467Z,3
2024-03-28T10:12:09.162Z,3
2024-03-28T10:13:00.422Z,3
2024-03-28T10:14:10.782Z,3
2024-03-28T10:15:00.465Z,4
2024-03-28T10:16:00.805Z,3
2024-03-28T10:17:00.643Z,3
2024-03-28T10:18:02.122Z,3
2024-03-28T10:19:00.406Z,3
2024-03-28T10:20:00.640Z,2
2024-03-28T10:21:00.999Z,3
2024-03-28T10:22:06.882Z,3
2024-03-28T10:23:01.463Z,3
2024-03-28T10:24:01.907Z,3
2024-03-28T10:25:00.451Z,3
2024-03-28T10:26:00.430Z,2
2024-03-28T10:27:00.419Z,2
2024-03-28T10:28:00.411Z,2
2024-03-28T10:29:00.417Z,2
2024-03-28T10:30:00.476Z,3
2024-03-28T10:31:00.595Z,3
2024-03-28T10:32:05.539Z,3
2024-03-28T10:33:01.026Z,3
2024-03-28T10:34:02.329Z,3
2024-03-28T10:35:00.403Z,2
2024-03-28T10:36:02.488Z,2
2024-03-28T10:37:04.102Z,2
2024-03-28T10:39:00.882Z,2
2024-03-28T10:40:00.417Z,2
2024-03-28T10:41:00.645Z,3
2024-03-28T10:42:00.944Z,3
2024-03-28T10:43:00.936Z,3
2024-03-28T10:44:00.765Z,3
2024-03-28T10:45:00.576Z,2
2024-03-28T10:46:02.599Z,3
2024-03-28T10:47:01.461Z,3
2024-03-28T10:48:00.968Z,3
2024-03-28T10:49:01.682Z,3
2024-03-28T10:50:14.335Z,1
2024-03-28T10:52:01.962Z,2
2024-03-28T10:53:05.469Z,2
2024-03-28T10:54:09.690Z,2
2024-03-28T10:55:04.064Z,1
2024-03-28T10:56:16.153Z,1
2024-03-28T10:57:01.883Z,1
2024-03-28T10:58:00.557Z,1
2024-03-28T10:59:01.088Z,1
2024-03-28T11:00:01.498Z,2
2024-03-28T11:01:07.910Z,1
2024-03-28T11:02:01.831Z,1
2024-03-28T11:03:02.032Z,1
2024-03-28T11:04:00.950Z,1
2024-03-28T11:05:01.581Z,3
2024-03-28T11:06:00.760Z,1
2024-03-28T11:07:00.555Z,1
2024-03-28T11:08:00.474Z,1
2024-03-28T11:09:00.850Z,1
2024-03-28T11:10:00.544Z,2
2024-03-28T11:11:00.898Z,2
2024-03-28T11:12:00.496Z,2
2024-03-28T11:13:00.533Z,2
2024-03-28T11:14:00.553Z,2
2024-03-28T11:15:00.410Z,1
2024-03-28T11:17:02.411Z,1
2024-03-28T11:18:00.507Z,1
2024-03-28T11:19:00.801Z,1
2024-03-28T11:20:00.970Z,1
2024-03-28T11:21:00.424Z,1
2024-03-28T11:22:00.487Z,1
2024-03-28T11:23:04.018Z,1
2024-03-28T11:24:00.731Z,1
2024-03-28T11:25:00.528Z,1
2024-03-28T11:26:04.312Z,1
2024-03-28T11:27:00.401Z,1
2024-03-28T11:28:02.634Z,1
2024-03-28T11:30:07.961Z,1
2024-03-28T11:31:00.808Z,2
2024-03-28T11:32:00.481Z,2
2024-03-28T11:33:08.730Z,2
2024-03-28T11:34:02.516Z,2
2024-03-28T11:35:08.142Z,2
2024-03-28T11:36:01.388Z,1
2024-03-28T11:37:00.380Z,1
2024-03-28T11:38:01.063Z,1
2024-03-28T11:39:00.416Z,1
2024-03-28T11:40:00.457Z,2
2024-03-28T11:41:00.628Z,1
2024-03-28T11:42:00.456Z,1
2024-03-28T11:43:16.698Z,1
2024-03-28T11:44:01.351Z,1
2024-03-28T11:45:08.161Z,2
2024-03-28T11:46:00.795Z,1
2024-03-28T11:47:00.414Z,1
2024-03-28T11:48:01.462Z,1
2024-03-28T11:49:00.399Z,1
2024-03-28T11:50:04.395Z,3
2024-03-28T11:51:01.236Z,2
2024-03-28T11:52:00.582Z,2
2024-03-28T11:53:00.488Z,2
2024-03-28T11:54:04.413Z,2
2024-03-28T11:55:00.995Z,2
2024-03-28T11:56:01.057Z,1
2024-03-28T11:57:00.443Z,1
2024-03-28T11:58:03.844Z,1
2024-03-28T11:59:00.412Z,1
2024-03-28T12:00:07.816Z,1
2024-03-28T12:01:02.364Z,1
2024-03-28T12:02:01.208Z,1
2024-03-28T12:03:00.373Z,1
2024-03-28T12:04:00.458Z,1
2024-03-28T12:05:04.123Z,1
2024-03-28T12:06:00.398Z,1
2024-03-28T12:07:03.017Z,1
2024-03-28T12:08:00.395Z,1
2024-03-28T12:09:00.431Z,1
2024-03-28T12:10:00.409Z,1
2024-03-28T12:11:01.455Z,1
2024-03-28T12:12:08.702Z,1
2024-03-28T12:13:01.580Z,1
2024-03-28T12:14:00.382Z,1
2024-03-28T12:15:01.943Z,1
2024-03-28T12:16:01.223Z,2
2024-03-28T12:17:00.392Z,2
2024-03-28T12:18:00.413Z,2
2024-03-28T12:19:03.886Z,2
2024-03-28T12:20:15.859Z,1
2024-03-28T12:21:01.647Z,1
2024-03-28T12:22:02.181Z,1
2024-03-28T12:23:00.933Z,1
2024-03-28T12:24:00.444Z,1
2024-03-28T12:25:01.023Z,2
2024-03-28T12:26:00.538Z,1
2024-03-28T12:27:00.451Z,1
2024-03-28T12:28:01.025Z,1
2024-03-28T12:29:00.509Z,1
2024-03-28T12:30:09.350Z,2
2024-03-28T12:31:00.510Z,1
2024-03-28T12:32:04.136Z,1
2024-03-28T12:33:01.500Z,1
2024-03-28T12:34:15.834Z,1
2024-03-28T12:35:01.537Z,1
2024-03-28T12:36:00.517Z,1
2024-03-28T12:37:00.529Z,1
2024-03-28T12:38:01.124Z,1
2024-03-28T12:39:00.616Z,1
2024-03-28T12:40:01.453Z,1
2024-03-28T12:41:00.521Z,1
2024-03-28T12:42:00.526Z,1
2024-03-28T12:43:00.489Z,1
2024-03-28T12:44:00.640Z,1
2024-03-28T12:45:23.254Z,1
2024-03-28T12:46:01.520Z,1
2024-03-28T12:47:00.520Z,1
2024-03-28T12:48:00.558Z,1
2024-03-28T12:49:00.699Z,1
2024-03-28T12:50:00.593Z,1
2024-03-28T12:51:00.559Z,0
2024-03-28T12:52:00.531Z,0
2024-03-28T12:53:00.593Z,0
2024-03-28T12:54:00.559Z,0
2024-03-28T12:55:00.665Z,1
2024-03-28T12:56:00.569Z,1
2024-03-28T12:57:00.554Z,1
2024-03-28T12:58:00.546Z,1
2024-03-28T12:59:00.733Z,1
2024-03-28T13:00:00.655Z,1
2024-03-28T13:01:00.841Z,1
2024-03-28T13:02:00.616Z,1
2024-03-28T13:03:00.590Z,1
2024-03-28T13:04:01.146Z,1
2024-03-28T13:05:00.761Z,1
2024-03-28T13:06:00.544Z,1
2024-03-28T13:07:00.536Z,1
2024-03-28T13:08:00.592Z,1
2024-03-28T13:09:00.777Z,1
2024-03-28T13:10:00.562Z,1
2024-03-28T13:11:00.730Z,1
2024-03-28T13:12:00.620Z,1
2024-03-28T13:13:00.574Z,1
2024-03-28T13:14:00.602Z,1
2024-03-28T13:15:00.940Z,2
2024-03-28T13:16:00.523Z,1
2024-03-28T13:17:00.553Z,1
2024-03-28T13:18:00.493Z,1
2024-03-28T13:19:00.578Z,1
2024-03-28T13:20:01.712Z,4
2024-03-28T13:21:00.448Z,1
2024-03-28T13:22:00.480Z,1
2024-03-28T13:23:00.512Z,1
2024-03-28T13:24:00.621Z,1
2024-03-28T13:25:00.463Z,1
2024-03-28T13:26:10.671Z,0
2024-03-28T13:27:17.674Z,0
2024-03-28T13:28:00.698Z,0
2024-03-28T13:29:00.427Z,0
2024-03-28T13:30:00.488Z,1
2024-03-28T13:31:00.472Z,0
2024-03-28T13:32:00.391Z,0
2024-03-28T13:33:01.452Z,0
2024-03-28T13:34:00.393Z,0
2024-03-28T13:35:00.405Z,1
2024-03-28T13:36:00.428Z,0
2024-03-28T13:37:00.534Z,0
2024-03-28T13:38:00.401Z,0
2024-03-28T13:39:00.408Z,0
2024-03-28T13:40:00.448Z,1
2024-03-28T13:41:00.410Z,1
2024-03-28T13:42:00.445Z,1
2024-03-28T13:43:00.471Z,1
2024-03-28T13:44:00.435Z,1
2024-03-28T13:45:00.422Z,2
2024-03-28T13:46:00.414Z,1
2024-03-28T13:47:00.450Z,1
2024-03-28T13:48:02.301Z,1
2024-03-28T13:49:00.505Z,1
2024-03-28T13:50:00.568Z,2
2024-03-28T13:51:00.422Z,1
2024-03-28T13:52:00.416Z,1
2024-03-28T13:53:00.406Z,1
2024-03-28T13:54:00.463Z,1
2024-03-28T13:55:00.431Z,1
2024-03-28T13:56:00.424Z,1
2024-03-28T13:57:00.529Z,1
2024-03-28T13:58:00.428Z,1
2024-03-28T13:59:00.425Z,1
2024-03-28T14:00:00.471Z,1
2024-03-28T14:01:00.745Z,0
2024-03-28T14:02:00.415Z,0
2024-03-28T14:03:00.412Z,0
2024-03-28T14:04:00.419Z,0
2024-03-28T14:05:00.547Z,2
2024-03-28T14:06:00.984Z,1
2024-03-28T14:07:00.444Z,1
2024-03-28T14:08:00.391Z,1
2024-03-28T14:09:00.450Z,1
2024-03-28T14:10:00.502Z,1
2024-03-28T14:11:00.400Z,1
2024-03-28T14:12:00.430Z,1
2024-03-28T14:13:00.419Z,1
2024-03-28T14:14:00.599Z,1
2024-03-28T14:15:00.431Z,1
2024-03-28T14:16:00.438Z,1
2024-03-28T14:17:00.415Z,1
2024-03-28T14:18:00.451Z,1
2024-03-28T14:19:00.445Z,1
2024-03-28T14:20:00.457Z,1
2024-03-28T14:21:00.955Z,0
2024-03-28T14:22:00.410Z,0
2024-03-28T14:23:00.403Z,0
2024-03-28T14:24:03.863Z,0
2024-03-28T14:25:00.474Z,2
2024-03-28T14:26:01.231Z,1
2024-03-28T14:27:00.471Z,1
2024-03-28T14:28:00.875Z,1
2024-03-28T14:29:00.422Z,1
2024-03-28T14:30:00.471Z,1
2024-03-28T14:31:04.542Z,1
2024-03-28T14:32:00.422Z,1
2024-03-28T14:33:00.413Z,1
2024-03-28T14:34:00.422Z,1
2024-03-28T14:35:00.437Z,1
2024-03-28T14:36:01.084Z,2
2024-03-28T14:37:00.472Z,2
2024-03-28T14:38:00.445Z,2
2024-03-28T14:39:00.402Z,2
2024-03-28T14:40:01.651Z,4